TimeCST,TemperatureF,Dew PointF,Humidity,Sea Level PressureIn,VisibilityMPH,Wind Direction,Wind SpeedMPH,Gust SpeedMPH,PrecipitationIn,Events,Conditions,WindDirDegrees,DateUTC
12:53 AM,37.0,27.0,67,30.01,10.0,South,8.1,-,N/A,,Clear,180,2012-01-30 06:53:00
1:53 AM,34.0,27.0,75,30.00,10.0,South,8.1,-,N/A,,Clear,180,2012-01-30 07:53:00
2:53 AM,34.0,27.0,75,29.99,10.0,South,9.2,-,N/A,,Clear,170,2012-01-30 08:53:00
3:53 AM,32.0,26.1,79,29.97,10.0,South,6.9,-,N/A,,Clear,180,2012-01-30 09:53:00
4:53 AM,35.1,26.1,70,29.95,10.0,South,11.5,-,N/A,,Clear,190,2012-01-30 10:53:00
5:53 AM,30.9,24.1,76,29.96,10.0,South,6.9,-,N/A,,Clear,190,2012-01-30 11:53:00
6:53 AM,30.0,25.0,82,29.97,10.0,South,5.8,-,N/A,,Clear,180,2012-01-30 12:53:00
7:53 AM,32.0,25.0,75,29.98,10.0,South,8.1,-,N/A,,Clear,170,2012-01-30 13:53:00
8:53 AM,39.0,28.0,65,29.98,10.0,South,6.9,-,N/A,,Clear,180,2012-01-30 14:53:00
9:53 AM,46.0,27.0,47,29.98,10.0,SW,8.1,-,N/A,,Clear,220,2012-01-30 15:53:00
10:53 AM,48.0,30.0,50,29.96,10.0,South,10.4,-,N/A,,Clear,180,2012-01-30 16:53:00
11:53 AM,54.0,30.9,41,29.94,10.0,South,10.4,-,0.00,,Clear,180,2012-01-30 17:53:00
12:53 PM,57.0,30.9,37,29.88,10.0,South,11.5,-,N/A,,Clear,170,2012-01-30 18:53:00
1:53 PM,62.1,32.0,32,29.85,10.0,South,12.7,21.9,N/A,,Clear,190,2012-01-30 19:53:00
2:53 PM,63.0,28.9,28,29.81,10.0,South,17.3,25.3,N/A,,Clear,180,2012-01-30 20:53:00
3:53 PM,64.0,30.9,29,29.80,10.0,South,15.0,25.3,N/A,,Clear,180,2012-01-30 21:53:00
4:53 PM,61.0,36.0,39,29.81,10.0,South,15.0,28.8,N/A,,Clear,180,2012-01-30 22:53:00
5:53 PM,55.0,36.0,49,29.82,10.0,South,10.4,-,N/A,,Clear,180,2012-01-30 23:53:00
6:53 PM,50.0,37.4,62,29.82,10.0,South,10.4,-,N/A,,Clear,170,2012-01-31 00:53:00
7:53 PM,48.0,36.0,63,29.85,10.0,South,9.2,-,N/A,,Clear,170,2012-01-31 01:53:00
8:53 PM,48.9,39.9,71,29.84,10.0,South,13.8,-,N/A,,Clear,190,2012-01-31 02:53:00
9:53 PM,51.1,41.0,68,29.82,10.0,South,15.0,-,N/A,,Clear,180,2012-01-31 03:53:00
10:53 PM,50.0,41.0,71,29.81,10.0,South,15.0,-,N/A,,Clear,190,2012-01-31 04:53:00
11:53 PM,48.0,42.1,80,29.80,10.0,South,11.5,-,N/A,,Clear,180,2012-01-31 05:53:00